sensor_id;sensor_type;location;lat;lon;timestamp;P1;durP1;ratioP1;P2;durP2;ratioP2
49548;SDS011;35450;44.518;7.466;2023-06-19T00:01:02;14.40;;;11.82;;
49548;SDS011;35450;44.518;7.466;2023-06-19T00:04:06;16.67;;;11.00;;
49548;SDS011;35450;44.518;7.466;2023-06-19T00:07:10;13.82;;;11.23;;
49548;SDS011;35450;44.518;7.466;2023-06-19T00:10:14;18.20;;;12.15;;
49548;SDS011;35450;44.518;7.466;2023-06-19T00:13:18;17.33;;;12.38;;
49548;SDS011;35450;44.518;7.466;2023-06-19T00:16:22;17.70;;;12.30;;
49548;SDS011;35450;44.518;7.466;2023-06-19T00:19:28;13.75;;;12.25;;
49548;SDS011;35450;44.518;7.466;2023-06-19T00:22:32;18.58;;;12.18;;
49548;SDS011;35450;44.518;7.466;2023-06-19T00:25:36;21.00;;;11.50;;
49548;SDS011;35450;44.518;7.466;2023-06-19T00:28:40;18.77;;;12.48;;
49548;SDS011;35450;44.518;7.466;2023-06-19T00:31:46;16.48;;;11.88;;
49548;SDS011;35450;44.518;7.466;2023-06-19T00:34:52;16.25;;;12.73;;
49548;SDS011;35450;44.518;7.466;2023-06-19T00:37:56;16.77;;;11.93;;
49548;SDS011;35450;44.518;7.466;2023-06-19T00:41:05;14.90;;;13.32;;
49548;SDS011;35450;44.518;7.466;2023-06-19T00:44:09;17.08;;;13.68;;
49548;SDS011;35450;44.518;7.466;2023-06-19T00:47:13;24.60;;;14.15;;
49548;SDS011;35450;44.518;7.466;2023-06-19T00:50:18;15.05;;;12.30;;
49548;SDS011;35450;44.518;7.466;2023-06-19T00:53:22;15.98;;;12.27;;
49548;SDS011;35450;44.518;7.466;2023-06-19T00:56:27;16.27;;;13.93;;
49548;SDS011;35450;44.518;7.466;2023-06-19T00:59:32;16.08;;;12.70;;
49548;SDS011;35450;44.518;7.466;2023-06-19T01:02:36;16.65;;;14.10;;
49548;SDS011;35450;44.518;7.466;2023-06-19T01:05:41;17.23;;;14.13;;
49548;SDS011;35450;44.518;7.466;2023-06-19T01:08:51;15.15;;;13.30;;
49548;SDS011;35450;44.518;7.466;2023-06-19T01:12:15;20.20;;;15.60;;
49548;SDS011;35450;44.518;7.466;2023-06-19T01:15:23;18.65;;;15.75;;
49548;SDS011;35450;44.518;7.466;2023-06-19T01:18:27;18.10;;;15.32;;
49548;SDS011;35450;44.518;7.466;2023-06-19T01:21:32;18.98;;;15.25;;
49548;SDS011;35450;44.518;7.466;2023-06-19T01:24:36;21.13;;;14.93;;
49548;SDS011;35450;44.518;7.466;2023-06-19T01:27:40;17.65;;;13.82;;
49548;SDS011;35450;44.518;7.466;2023-06-19T01:30:45;19.15;;;14.73;;
49548;SDS011;35450;44.518;7.466;2023-06-19T01:33:50;18.45;;;15.48;;
49548;SDS011;35450;44.518;7.466;2023-06-19T01:36:55;16.35;;;14.50;;
49548;SDS011;35450;44.518;7.466;2023-06-19T01:40:00;17.65;;;15.75;;
49548;SDS011;35450;44.518;7.466;2023-06-19T01:43:08;22.05;;;15.13;;
49548;SDS011;35450;44.518;7.466;2023-06-19T01:46:14;18.25;;;15.40;;
49548;SDS011;35450;44.518;7.466;2023-06-19T01:49:18;20.38;;;15.32;;
49548;SDS011;35450;44.518;7.466;2023-06-19T01:52:23;23.13;;;15.35;;
49548;SDS011;35450;44.518;7.466;2023-06-19T01:55:28;17.50;;;15.45;;
49548;SDS011;35450;44.518;7.466;2023-06-19T01:58:34;19.25;;;16.27;;
49548;SDS011;35450;44.518;7.466;2023-06-19T02:01:38;23.75;;;16.13;;
49548;SDS011;35450;44.518;7.466;2023-06-19T02:04:42;20.98;;;15.55;;
49548;SDS011;35450;44.518;7.466;2023-06-19T02:07:46;23.08;;;15.55;;
49548;SDS011;35450;44.518;7.466;2023-06-19T02:10:53;19.70;;;16.77;;
49548;SDS011;35450;44.518;7.466;2023-06-19T02:13:57;23.95;;;15.55;;
49548;SDS011;35450;44.518;7.466;2023-06-19T02:17:00;21.52;;;16.48;;
49548;SDS011;35450;44.518;7.466;2023-06-19T02:20:04;18.58;;;16.00;;
49548;SDS011;35450;44.518;7.466;2023-06-19T02:23:14;21.30;;;16.15;;
49548;SDS011;35450;44.518;7.466;2023-06-19T02:26:18;21.48;;;16.85;;
49548;SDS011;35450;44.518;7.466;2023-06-19T02:29:24;23.08;;;17.98;;
49548;SDS011;35450;44.518;7.466;2023-06-19T02:32:28;20.20;;;17.85;;
49548;SDS011;35450;44.518;7.466;2023-06-19T02:35:32;23.10;;;16.35;;
49548;SDS011;35450;44.518;7.466;2023-06-19T02:38:36;26.48;;;17.10;;
49548;SDS011;35450;44.518;7.466;2023-06-19T02:41:40;20.02;;;16.85;;
49548;SDS011;35450;44.518;7.466;2023-06-19T02:44:46;21.90;;;17.17;;
49548;SDS011;35450;44.518;7.466;2023-06-19T02:47:50;23.63;;;17.23;;
49548;SDS011;35450;44.518;7.466;2023-06-19T02:50:55;21.63;;;18.35;;
49548;SDS011;35450;44.518;7.466;2023-06-19T02:53:59;18.83;;;16.45;;
49548;SDS011;35450;44.518;7.466;2023-06-19T02:57:03;26.77;;;16.23;;
49548;SDS011;35450;44.518;7.466;2023-06-19T03:00:07;21.80;;;17.05;;
49548;SDS011;35450;44.518;7.466;2023-06-19T03:03:13;20.60;;;18.38;;
49548;SDS011;35450;44.518;7.466;2023-06-19T03:06:17;21.75;;;17.02;;
49548;SDS011;35450;44.518;7.466;2023-06-19T03:09:21;21.67;;;16.38;;
49548;SDS011;35450;44.518;7.466;2023-06-19T03:12:25;22.60;;;17.08;;
49548;SDS011;35450;44.518;7.466;2023-06-19T03:15:29;19.35;;;17.33;;
49548;SDS011;35450;44.518;7.466;2023-06-19T03:18:33;20.10;;;17.98;;
49548;SDS011;35450;44.518;7.466;2023-06-19T03:21:37;19.63;;;17.42;;
49548;SDS011;35450;44.518;7.466;2023-06-19T03:24:41;25.27;;;17.95;;
49548;SDS011;35450;44.518;7.466;2023-06-19T03:27:54;25.83;;;18.55;;
49548;SDS011;35450;44.518;7.466;2023-06-19T03:30:57;21.50;;;17.33;;
49548;SDS011;35450;44.518;7.466;2023-06-19T03:34:02;21.73;;;17.98;;
49548;SDS011;35450;44.518;7.466;2023-06-19T03:37:06;24.83;;;18.55;;
49548;SDS011;35450;44.518;7.466;2023-06-19T03:40:11;21.02;;;18.42;;
49548;SDS011;35450;44.518;7.466;2023-06-19T03:43:19;22.92;;;17.33;;
49548;SDS011;35450;44.518;7.466;2023-06-19T03:46:23;25.85;;;18.70;;
49548;SDS011;35450;44.518;7.466;2023-06-19T03:49:27;20.30;;;18.10;;
49548;SDS011;35450;44.518;7.466;2023-06-19T03:52:31;26.67;;;18.33;;
49548;SDS011;35450;44.518;7.466;2023-06-19T03:55:35;28.67;;;19.15;;
49548;SDS011;35450;44.518;7.466;2023-06-19T03:58:39;22.38;;;17.92;;
49548;SDS011;35450;44.518;7.466;2023-06-19T04:01:43;30.38;;;18.83;;
49548;SDS011;35450;44.518;7.466;2023-06-19T04:04:47;20.63;;;17.75;;
49548;SDS011;35450;44.518;7.466;2023-06-19T04:07:53;22.20;;;18.83;;
49548;SDS011;35450;44.518;7.466;2023-06-19T04:10:57;21.58;;;17.52;;
49548;SDS011;35450;44.518;7.466;2023-06-19T04:14:05;25.02;;;18.80;;
49548;SDS011;35450;44.518;7.466;2023-06-19T04:17:13;27.20;;;17.25;;
49548;SDS011;35450;44.518;7.466;2023-06-19T04:20:18;26.48;;;17.85;;
49548;SDS011;35450;44.518;7.466;2023-06-19T04:23:24;23.77;;;17.15;;
49548;SDS011;35450;44.518;7.466;2023-06-19T04:26:28;23.38;;;17.77;;
49548;SDS011;35450;44.518;7.466;2023-06-19T04:29:32;27.52;;;17.45;;
49548;SDS011;35450;44.518;7.466;2023-06-19T04:32:36;22.48;;;17.00;;
49548;SDS011;35450;44.518;7.466;2023-06-19T04:35:43;25.55;;;16.60;;
49548;SDS011;35450;44.518;7.466;2023-06-19T04:38:48;25.90;;;17.77;;
49548;SDS011;35450;44.518;7.466;2023-06-19T04:41:54;21.25;;;17.02;;
49548;SDS011;35450;44.518;7.466;2023-06-19T04:44:58;26.88;;;17.42;;
49548;SDS011;35450;44.518;7.466;2023-06-19T04:48:03;20.80;;;16.67;;
49548;SDS011;35450;44.518;7.466;2023-06-19T04:51:07;23.25;;;17.13;;
49548;SDS011;35450;44.518;7.466;2023-06-19T04:54:12;24.65;;;18.95;;
49548;SDS011;35450;44.518;7.466;2023-06-19T04:57:16;23.65;;;18.90;;
49548;SDS011;35450;44.518;7.466;2023-06-19T05:00:20;30.33;;;20.13;;
49548;SDS011;35450;44.518;7.466;2023-06-19T05:03:24;23.30;;;19.23;;
49548;SDS011;35450;44.518;7.466;2023-06-19T05:06:28;24.35;;;19.92;;
49548;SDS011;35450;44.518;7.466;2023-06-19T05:09:32;25.30;;;18.95;;
49548;SDS011;35450;44.518;7.466;2023-06-19T05:12:36;24.15;;;18.90;;
49548;SDS011;35450;44.518;7.466;2023-06-19T05:15:40;25.35;;;18.88;;
49548;SDS011;35450;44.518;7.466;2023-06-19T05:18:44;28.50;;;18.63;;
49548;SDS011;35450;44.518;7.466;2023-06-19T05:21:49;20.73;;;18.52;;
49548;SDS011;35450;44.518;7.466;2023-06-19T05:24:53;23.75;;;18.70;;
49548;SDS011;35450;44.518;7.466;2023-06-19T05:27:57;24.00;;;18.05;;
49548;SDS011;35450;44.518;7.466;2023-06-19T05:31:01;21.52;;;18.67;;
49548;SDS011;35450;44.518;7.466;2023-06-19T05:34:05;24.13;;;18.30;;
49548;SDS011;35450;44.518;7.466;2023-06-19T05:37:09;23.85;;;18.65;;
49548;SDS011;35450;44.518;7.466;2023-06-19T05:40:12;20.85;;;17.48;;
49548;SDS011;35450;44.518;7.466;2023-06-19T05:43:16;20.52;;;16.80;;
49548;SDS011;35450;44.518;7.466;2023-06-19T05:46:22;21.20;;;17.70;;
49548;SDS011;35450;44.518;7.466;2023-06-19T05:49:26;21.58;;;17.40;;
49548;SDS011;35450;44.518;7.466;2023-06-19T05:52:30;25.27;;;17.15;;
49548;SDS011;35450;44.518;7.466;2023-06-19T05:55:34;21.45;;;17.77;;
49548;SDS011;35450;44.518;7.466;2023-06-19T05:58:38;22.00;;;17.17;;
49548;SDS011;35450;44.518;7.466;2023-06-19T06:01:42;23.10;;;18.30;;
49548;SDS011;35450;44.518;7.466;2023-06-19T06:04:46;23.40;;;18.10;;
49548;SDS011;35450;44.518;7.466;2023-06-19T06:07:54;28.83;;;18.45;;
49548;SDS011;35450;44.518;7.466;2023-06-19T06:10:58;26.88;;;16.23;;
49548;SDS011;35450;44.518;7.466;2023-06-19T06:14:02;21.52;;;16.58;;
49548;SDS011;35450;44.518;7.466;2023-06-19T06:17:06;21.65;;;16.80;;
49548;SDS011;35450;44.518;7.466;2023-06-19T06:20:10;18.17;;;15.90;;
49548;SDS011;35450;44.518;7.466;2023-06-19T06:23:15;20.60;;;16.90;;
49548;SDS011;35450;44.518;7.466;2023-06-19T06:26:19;21.23;;;16.65;;
49548;SDS011;35450;44.518;7.466;2023-06-19T06:29:23;22.48;;;16.38;;
49548;SDS011;35450;44.518;7.466;2023-06-19T06:32:27;20.88;;;16.45;;
49548;SDS011;35450;44.518;7.466;2023-06-19T06:35:32;22.50;;;16.15;;
49548;SDS011;35450;44.518;7.466;2023-06-19T06:38:36;20.92;;;14.95;;
49548;SDS011;35450;44.518;7.466;2023-06-19T06:41:41;18.83;;;16.83;;
49548;SDS011;35450;44.518;7.466;2023-06-19T06:44:49;20.88;;;15.45;;
49548;SDS011;35450;44.518;7.466;2023-06-19T06:47:53;17.38;;;14.45;;
49548;SDS011;35450;44.518;7.466;2023-06-19T06:50:57;21.05;;;16.55;;
49548;SDS011;35450;44.518;7.466;2023-06-19T06:54:04;21.10;;;15.63;;
49548;SDS011;35450;44.518;7.466;2023-06-19T06:57:08;17.52;;;15.48;;
49548;SDS011;35450;44.518;7.466;2023-06-19T07:00:13;17.25;;;15.40;;
49548;SDS011;35450;44.518;7.466;2023-06-19T07:03:17;22.25;;;15.77;;
49548;SDS011;35450;44.518;7.466;2023-06-19T07:06:23;18.60;;;14.20;;
49548;SDS011;35450;44.518;7.466;2023-06-19T07:09:27;17.90;;;15.68;;
49548;SDS011;35450;44.518;7.466;2023-06-19T07:12:31;23.35;;;14.80;;
49548;SDS011;35450;44.518;7.466;2023-06-19T07:15:36;18.63;;;14.65;;
49548;SDS011;35450;44.518;7.466;2023-06-19T07:18:40;24.50;;;15.55;;
49548;SDS011;35450;44.518;7.466;2023-06-19T07:21:44;20.67;;;15.35;;
49548;SDS011;35450;44.518;7.466;2023-06-19T07:24:48;17.85;;;15.55;;
49548;SDS011;35450;44.518;7.466;2023-06-19T07:27:52;22.58;;;16.33;;
49548;SDS011;35450;44.518;7.466;2023-06-19T07:30:56;20.60;;;16.33;;
49548;SDS011;35450;44.518;7.466;2023-06-19T07:34:01;21.38;;;16.80;;
49548;SDS011;35450;44.518;7.466;2023-06-19T07:37:05;18.83;;;16.45;;
49548;SDS011;35450;44.518;7.466;2023-06-19T07:40:09;18.02;;;16.10;;
49548;SDS011;35450;44.518;7.466;2023-06-19T07:43:13;21.15;;;16.10;;
49548;SDS011;35450;44.518;7.466;2023-06-19T07:46:18;20.98;;;17.25;;
49548;SDS011;35450;44.518;7.466;2023-06-19T07:49:22;19.13;;;16.90;;
49548;SDS011;35450;44.518;7.466;2023-06-19T07:52:26;18.55;;;16.63;;
49548;SDS011;35450;44.518;7.466;2023-06-19T07:55:30;23.17;;;17.23;;
49548;SDS011;35450;44.518;7.466;2023-06-19T07:58:34;19.00;;;15.70;;
49548;SDS011;35450;44.518;7.466;2023-06-19T08:01:38;25.50;;;17.73;;
49548;SDS011;35450;44.518;7.466;2023-06-19T08:04:42;19.13;;;17.20;;
49548;SDS011;35450;44.518;7.466;2023-06-19T08:07:46;23.05;;;16.92;;
49548;SDS011;35450;44.518;7.466;2023-06-19T08:10:50;18.13;;;15.70;;
49548;SDS011;35450;44.518;7.466;2023-06-19T08:13:54;20.42;;;16.98;;
49548;SDS011;35450;44.518;7.466;2023-06-19T08:16:58;20.63;;;17.38;;
49548;SDS011;35450;44.518;7.466;2023-06-19T08:20:02;20.73;;;18.50;;
49548;SDS011;35450;44.518;7.466;2023-06-19T08:23:08;24.48;;;18.70;;
49548;SDS011;35450;44.518;7.466;2023-06-19T08:26:12;23.08;;;18.48;;
49548;SDS011;35450;44.518;7.466;2023-06-19T08:29:17;19.90;;;17.90;;
49548;SDS011;35450;44.518;7.466;2023-06-19T08:32:21;23.45;;;17.45;;
49548;SDS011;35450;44.518;7.466;2023-06-19T08:35:25;21.88;;;18.65;;
49548;SDS011;35450;44.518;7.466;2023-06-19T08:38:30;20.45;;;18.27;;
49548;SDS011;35450;44.518;7.466;2023-06-19T08:41:35;24.77;;;19.00;;
49548;SDS011;35450;44.518;7.466;2023-06-19T08:44:41;23.00;;;18.58;;
49548;SDS011;35450;44.518;7.466;2023-06-19T08:47:45;22.80;;;17.85;;
49548;SDS011;35450;44.518;7.466;2023-06-19T08:50:51;23.45;;;18.95;;
49548;SDS011;35450;44.518;7.466;2023-06-19T08:53:59;32.13;;;17.77;;
49548;SDS011;35450;44.518;7.466;2023-06-19T08:57:05;21.75;;;18.17;;
49548;SDS011;35450;44.518;7.466;2023-06-19T09:00:10;25.15;;;17.73;;
49548;SDS011;35450;44.518;7.466;2023-06-19T09:03:19;20.52;;;18.20;;
49548;SDS011;35450;44.518;7.466;2023-06-19T09:06:27;20.73;;;16.73;;
49548;SDS011;35450;44.518;7.466;2023-06-19T09:09:31;20.48;;;18.33;;
49548;SDS011;35450;44.518;7.466;2023-06-19T09:12:36;22.63;;;17.17;;
49548;SDS011;35450;44.518;7.466;2023-06-19T09:15:40;26.40;;;17.75;;
49548;SDS011;35450;44.518;7.466;2023-06-19T09:18:46;17.48;;;15.68;;
49548;SDS011;35450;44.518;7.466;2023-06-19T09:21:58;26.08;;;17.77;;
49548;SDS011;35450;44.518;7.466;2023-06-19T09:25:07;23.77;;;16.35;;
49548;SDS011;35450;44.518;7.466;2023-06-19T09:28:17;21.15;;;15.55;;
49548;SDS011;35450;44.518;7.466;2023-06-19T09:31:30;18.50;;;16.15;;
49548;SDS011;35450;44.518;7.466;2023-06-19T09:34:36;17.00;;;14.32;;
49548;SDS011;35450;44.518;7.466;2023-06-19T09:37:40;18.08;;;14.43;;
49548;SDS011;35450;44.518;7.466;2023-06-19T09:40:45;20.48;;;15.02;;
49548;SDS011;35450;44.518;7.466;2023-06-19T09:43:52;19.10;;;15.32;;
49548;SDS011;35450;44.518;7.466;2023-06-19T09:47:03;16.92;;;14.90;;
49548;SDS011;35450;44.518;7.466;2023-06-19T09:50:20;15.23;;;13.73;;
49548;SDS011;35450;44.518;7.466;2023-06-19T09:53:26;21.13;;;16.13;;
49548;SDS011;35450;44.518;7.466;2023-06-19T09:56:32;19.13;;;15.45;;
49548;SDS011;35450;44.518;7.466;2023-06-19T09:59:40;19.52;;;14.60;;
49548;SDS011;35450;44.518;7.466;2023-06-19T10:02:46;18.67;;;15.50;;
49548;SDS011;35450;44.518;7.466;2023-06-19T10:05:57;17.35;;;14.93;;
49548;SDS011;35450;44.518;7.466;2023-06-19T10:09:07;22.05;;;16.95;;
49548;SDS011;35450;44.518;7.466;2023-06-19T10:12:12;19.55;;;16.70;;
49548;SDS011;35450;44.518;7.466;2023-06-19T10:18:22;19.60;;;15.90;;
49548;SDS011;35450;44.518;7.466;2023-06-19T10:21:28;20.05;;;16.38;;
49548;SDS011;35450;44.518;7.466;2023-06-19T10:24:49;17.80;;;16.02;;
49548;SDS011;35450;44.518;7.466;2023-06-19T10:27:54;21.52;;;16.55;;
49548;SDS011;35450;44.518;7.466;2023-06-19T10:31:02;21.40;;;15.68;;
49548;SDS011;35450;44.518;7.466;2023-06-19T10:34:07;18.52;;;15.82;;
49548;SDS011;35450;44.518;7.466;2023-06-19T10:37:12;24.13;;;15.93;;
49548;SDS011;35450;44.518;7.466;2023-06-19T10:40:17;19.95;;;16.50;;
49548;SDS011;35450;44.518;7.466;2023-06-19T10:43:22;22.45;;;15.48;;
49548;SDS011;35450;44.518;7.466;2023-06-19T10:46:29;21.55;;;15.60;;
49548;SDS011;35450;44.518;7.466;2023-06-19T10:49:37;16.65;;;14.60;;
49548;SDS011;35450;44.518;7.466;2023-06-19T10:52:46;15.50;;;13.90;;
49548;SDS011;35450;44.518;7.466;2023-06-19T10:55:59;15.07;;;12.85;;
49548;SDS011;35450;44.518;7.466;2023-06-19T10:59:05;14.82;;;13.38;;
49548;SDS011;35450;44.518;7.466;2023-06-19T11:02:18;16.90;;;13.57;;
49548;SDS011;35450;44.518;7.466;2023-06-19T11:05:23;14.32;;;12.88;;
49548;SDS011;35450;44.518;7.466;2023-06-19T11:08:28;15.48;;;12.65;;
49548;SDS011;35450;44.518;7.466;2023-06-19T11:11:42;16.92;;;15.13;;
49548;SDS011;35450;44.518;7.466;2023-06-19T11:14:48;20.30;;;14.30;;
49548;SDS011;35450;44.518;7.466;2023-06-19T11:17:52;22.88;;;14.45;;
49548;SDS011;35450;44.518;7.466;2023-06-19T11:20:56;19.70;;;13.95;;
49548;SDS011;35450;44.518;7.466;2023-06-19T11:24:00;15.68;;;12.65;;
49548;SDS011;35450;44.518;7.466;2023-06-19T11:27:05;18.25;;;13.43;;
49548;SDS011;35450;44.518;7.466;2023-06-19T11:30:13;13.48;;;12.07;;
49548;SDS011;35450;44.518;7.466;2023-06-19T11:33:21;16.65;;;12.25;;
49548;SDS011;35450;44.518;7.466;2023-06-19T11:36:26;13.93;;;12.52;;
49548;SDS011;35450;44.518;7.466;2023-06-19T11:39:30;14.45;;;11.55;;
49548;SDS011;35450;44.518;7.466;2023-06-19T11:42:43;17.05;;;13.35;;
49548;SDS011;35450;44.518;7.466;2023-06-19T11:45:51;13.02;;;11.30;;
49548;SDS011;35450;44.518;7.466;2023-06-19T11:49:06;14.18;;;10.82;;
49548;SDS011;35450;44.518;7.466;2023-06-19T11:52:13;16.58;;;10.75;;
49548;SDS011;35450;44.518;7.466;2023-06-19T11:55:17;13.77;;;11.32;;
49548;SDS011;35450;44.518;7.466;2023-06-19T11:58:21;12.00;;;10.35;;
49548;SDS011;35450;44.518;7.466;2023-06-19T12:01:25;11.95;;;10.75;;
49548;SDS011;35450;44.518;7.466;2023-06-19T12:04:30;22.17;;;10.73;;
49548;SDS011;35450;44.518;7.466;2023-06-19T12:07:34;25.95;;;11.43;;
49548;SDS011;35450;44.518;7.466;2023-06-19T12:10:38;15.57;;;10.75;;
49548;SDS011;35450;44.518;7.466;2023-06-19T12:13:42;12.48;;;10.50;;
49548;SDS011;35450;44.518;7.466;2023-06-19T12:16:46;12.70;;;10.85;;
49548;SDS011;35450;44.518;7.466;2023-06-19T12:19:53;10.65;;;9.52;;
49548;SDS011;35450;44.518;7.466;2023-06-19T12:22:57;17.13;;;10.73;;
49548;SDS011;35450;44.518;7.466;2023-06-19T12:26:02;14.88;;;9.90;;
49548;SDS011;35450;44.518;7.466;2023-06-19T12:29:06;15.30;;;9.90;;
49548;SDS011;35450;44.518;7.466;2023-06-19T12:32:11;10.00;;;8.45;;
49548;SDS011;35450;44.518;7.466;2023-06-19T12:35:15;11.30;;;9.13;;
49548;SDS011;35450;44.518;7.466;2023-06-19T12:38:19;11.65;;;8.57;;
49548;SDS011;35450;44.518;7.466;2023-06-19T12:41:23;12.32;;;8.40;;
49548;SDS011;35450;44.518;7.466;2023-06-19T12:44:27;10.23;;;8.25;;
49548;SDS011;35450;44.518;7.466;2023-06-19T12:47:31;13.63;;;8.90;;
49548;SDS011;35450;44.518;7.466;2023-06-19T12:50:36;9.93;;;7.88;;
49548;SDS011;35450;44.518;7.466;2023-06-19T12:53:40;12.05;;;8.43;;
49548;SDS011;35450;44.518;7.466;2023-06-19T12:56:44;9.38;;;7.15;;
49548;SDS011;35450;44.518;7.466;2023-06-19T12:59:52;10.93;;;7.75;;
49548;SDS011;35450;44.518;7.466;2023-06-19T13:02:56;9.35;;;7.97;;
49548;SDS011;35450;44.518;7.466;2023-06-19T13:05:59;9.35;;;7.35;;
49548;SDS011;35450;44.518;7.466;2023-06-19T13:09:04;9.38;;;7.80;;
49548;SDS011;35450;44.518;7.466;2023-06-19T13:12:09;11.48;;;8.52;;
49548;SDS011;35450;44.518;7.466;2023-06-19T13:15:13;10.45;;;8.98;;
49548;SDS011;35450;44.518;7.466;2023-06-19T13:18:20;14.35;;;8.65;;
49548;SDS011;35450;44.518;7.466;2023-06-19T13:21:24;12.65;;;8.98;;
49548;SDS011;35450;44.518;7.466;2023-06-19T13:24:28;8.85;;;7.93;;
49548;SDS011;35450;44.518;7.466;2023-06-19T13:27:32;9.23;;;7.72;;
49548;SDS011;35450;44.518;7.466;2023-06-19T13:30:36;11.25;;;8.98;;
49548;SDS011;35450;44.518;7.466;2023-06-19T13:33:40;11.40;;;7.43;;
49548;SDS011;35450;44.518;7.466;2023-06-19T13:36:44;11.20;;;7.57;;
49548;SDS011;35450;44.518;7.466;2023-06-19T13:39:48;15.23;;;7.57;;
49548;SDS011;35450;44.518;7.466;2023-06-19T13:42:53;9.30;;;7.97;;
49548;SDS011;35450;44.518;7.466;2023-06-19T13:45:58;10.05;;;8.02;;
49548;SDS011;35450;44.518;7.466;2023-06-19T13:49:02;14.48;;;8.10;;
49548;SDS011;35450;44.518;7.466;2023-06-19T13:52:08;8.95;;;8.05;;
49548;SDS011;35450;44.518;7.466;2023-06-19T13:55:12;9.85;;;7.82;;
49548;SDS011;35450;44.518;7.466;2023-06-19T13:58:17;11.63;;;7.95;;
49548;SDS011;35450;44.518;7.466;2023-06-19T14:01:21;10.10;;;6.35;;
49548;SDS011;35450;44.518;7.466;2023-06-19T14:04:25;11.50;;;8.13;;
49548;SDS011;35450;44.518;7.466;2023-06-19T14:07:32;9.48;;;7.50;;
49548;SDS011;35450;44.518;7.466;2023-06-19T14:10:38;11.15;;;7.90;;
49548;SDS011;35450;44.518;7.466;2023-06-19T14:13:42;10.32;;;7.65;;
49548;SDS011;35450;44.518;7.466;2023-06-19T14:16:47;14.43;;;6.78;;
49548;SDS011;35450;44.518;7.466;2023-06-19T14:19:52;8.57;;;7.38;;
49548;SDS011;35450;44.518;7.466;2023-06-19T14:22:56;10.65;;;6.90;;
49548;SDS011;35450;44.518;7.466;2023-06-19T14:26:00;10.98;;;6.47;;
49548;SDS011;35450;44.518;7.466;2023-06-19T14:29:04;7.05;;;6.35;;
49548;SDS011;35450;44.518;7.466;2023-06-19T14:32:09;10.32;;;6.60;;
49548;SDS011;35450;44.518;7.466;2023-06-19T14:35:13;12.88;;;7.78;;
49548;SDS011;35450;44.518;7.466;2023-06-19T14:38:18;9.82;;;6.20;;
49548;SDS011;35450;44.518;7.466;2023-06-19T14:41:23;8.20;;;6.57;;
49548;SDS011;35450;44.518;7.466;2023-06-19T14:44:28;10.60;;;6.60;;
49548;SDS011;35450;44.518;7.466;2023-06-19T14:47:31;8.80;;;7.13;;
49548;SDS011;35450;44.518;7.466;2023-06-19T14:50:37;12.27;;;7.03;;
49548;SDS011;35450;44.518;7.466;2023-06-19T14:53:41;10.23;;;6.00;;
49548;SDS011;35450;44.518;7.466;2023-06-19T14:56:46;11.18;;;6.10;;
49548;SDS011;35450;44.518;7.466;2023-06-19T14:59:52;8.10;;;6.25;;
49548;SDS011;35450;44.518;7.466;2023-06-19T15:02:57;11.48;;;6.25;;
49548;SDS011;35450;44.518;7.466;2023-06-19T15:06:09;8.23;;;6.25;;
49548;SDS011;35450;44.518;7.466;2023-06-19T15:09:14;19.60;;;6.53;;
49548;SDS011;35450;44.518;7.466;2023-06-19T15:12:18;8.48;;;6.63;;
49548;SDS011;35450;44.518;7.466;2023-06-19T15:15:22;7.90;;;6.65;;
49548;SDS011;35450;44.518;7.466;2023-06-19T15:18:27;9.43;;;7.32;;
49548;SDS011;35450;44.518;7.466;2023-06-19T15:21:31;15.73;;;8.70;;
49548;SDS011;35450;44.518;7.466;2023-06-19T15:24:36;8.82;;;7.18;;
49548;SDS011;35450;44.518;7.466;2023-06-19T15:27:40;8.45;;;7.47;;
49548;SDS011;35450;44.518;7.466;2023-06-19T15:30:44;8.95;;;7.28;;
49548;SDS011;35450;44.518;7.466;2023-06-19T15:33:48;7.85;;;6.85;;
49548;SDS011;35450;44.518;7.466;2023-06-19T15:36:53;7.60;;;6.85;;
49548;SDS011;35450;44.518;7.466;2023-06-19T15:39:59;11.10;;;7.03;;
49548;SDS011;35450;44.518;7.466;2023-06-19T15:43:10;7.57;;;6.65;;
49548;SDS011;35450;44.518;7.466;2023-06-19T15:46:14;13.10;;;7.72;;
49548;SDS011;35450;44.518;7.466;2023-06-19T15:49:18;11.73;;;7.55;;
49548;SDS011;35450;44.518;7.466;2023-06-19T15:52:25;10.43;;;7.22;;
49548;SDS011;35450;44.518;7.466;2023-06-19T15:55:31;10.57;;;7.30;;
49548;SDS011;35450;44.518;7.466;2023-06-19T15:58:35;8.25;;;7.30;;
49548;SDS011;35450;44.518;7.466;2023-06-19T16:01:39;10.48;;;7.40;;
49548;SDS011;35450;44.518;7.466;2023-06-19T16:04:43;11.00;;;7.68;;
49548;SDS011;35450;44.518;7.466;2023-06-19T16:07:49;8.20;;;7.28;;
49548;SDS011;35450;44.518;7.466;2023-06-19T16:10:53;11.40;;;8.02;;
49548;SDS011;35450;44.518;7.466;2023-06-19T16:13:58;18.95;;;11.77;;
49548;SDS011;35450;44.518;7.466;2023-06-19T16:17:03;11.27;;;7.65;;
49548;SDS011;35450;44.518;7.466;2023-06-19T16:20:07;9.65;;;7.72;;
49548;SDS011;35450;44.518;7.466;2023-06-19T16:23:12;12.68;;;7.05;;
49548;SDS011;35450;44.518;7.466;2023-06-19T16:26:16;9.57;;;7.85;;
49548;SDS011;35450;44.518;7.466;2023-06-19T16:29:21;12.52;;;6.88;;
49548;SDS011;35450;44.518;7.466;2023-06-19T16:32:36;11.55;;;7.07;;
49548;SDS011;35450;44.518;7.466;2023-06-19T16:35:48;9.13;;;6.80;;
49548;SDS011;35450;44.518;7.466;2023-06-19T16:38:53;13.45;;;7.00;;
49548;SDS011;35450;44.518;7.466;2023-06-19T16:41:58;9.95;;;6.47;;
49548;SDS011;35450;44.518;7.466;2023-06-19T16:45:02;11.55;;;6.55;;
49548;SDS011;35450;44.518;7.466;2023-06-19T16:48:08;16.92;;;7.10;;
49548;SDS011;35450;44.518;7.466;2023-06-19T16:51:12;10.82;;;5.72;;
49548;SDS011;35450;44.518;7.466;2023-06-19T16:54:16;13.13;;;6.18;;
49548;SDS011;35450;44.518;7.466;2023-06-19T16:57:20;10.45;;;6.15;;
49548;SDS011;35450;44.518;7.466;2023-06-19T17:00:24;11.25;;;6.38;;
49548;SDS011;35450;44.518;7.466;2023-06-19T17:03:28;8.90;;;6.38;;
49548;SDS011;35450;44.518;7.466;2023-06-19T17:06:32;8.65;;;5.88;;
49548;SDS011;35450;44.518;7.466;2023-06-19T17:09:37;15.38;;;6.68;;
49548;SDS011;35450;44.518;7.466;2023-06-19T17:12:42;8.68;;;6.88;;
49548;SDS011;35450;44.518;7.466;2023-06-19T17:15:46;13.43;;;7.03;;
49548;SDS011;35450;44.518;7.466;2023-06-19T17:18:50;14.00;;;6.97;;
49548;SDS011;35450;44.518;7.466;2023-06-19T17:21:54;14.85;;;7.10;;
49548;SDS011;35450;44.518;7.466;2023-06-19T17:24:58;14.05;;;6.35;;
49548;SDS011;35450;44.518;7.466;2023-06-19T17:28:02;13.18;;;6.47;;
49548;SDS011;35450;44.518;7.466;2023-06-19T17:31:08;14.07;;;7.78;;
49548;SDS011;35450;44.518;7.466;2023-06-19T17:34:12;13.73;;;6.75;;
49548;SDS011;35450;44.518;7.466;2023-06-19T17:37:16;11.43;;;7.03;;
49548;SDS011;35450;44.518;7.466;2023-06-19T17:40:20;16.73;;;6.82;;
49548;SDS011;35450;44.518;7.466;2023-06-19T17:43:23;13.30;;;6.85;;
49548;SDS011;35450;44.518;7.466;2023-06-19T17:46:27;13.48;;;7.38;;
49548;SDS011;35450;44.518;7.466;2023-06-19T17:49:32;10.50;;;6.38;;
49548;SDS011;35450;44.518;7.466;2023-06-19T17:52:36;17.05;;;6.45;;
49548;SDS011;35450;44.518;7.466;2023-06-19T17:55:40;9.55;;;6.40;;
49548;SDS011;35450;44.518;7.466;2023-06-19T17:58:46;12.57;;;6.25;;
49548;SDS011;35450;44.518;7.466;2023-06-19T18:01:51;16.95;;;7.07;;
49548;SDS011;35450;44.518;7.466;2023-06-19T18:04:55;11.13;;;6.53;;
49548;SDS011;35450;44.518;7.466;2023-06-19T18:08:00;12.10;;;6.90;;
49548;SDS011;35450;44.518;7.466;2023-06-19T18:11:04;14.70;;;7.47;;